Time;durP1;ratioP1;P1;durP2;ratioP2;P2;SDS_P1;SDS_P2;PMS_P1;PMS_P2;Temp;Humidity;BMP_temperature;BMP_pressure;BME280_temperature;BME280_humidity;BME280_pressure;Samples;Min_cycle;Max_cycle;Signal;HPM_P1;HPM_P2
2023/12/03 00:00:40;;;;;;;18.35;12.60;;;179.50;2252.80;;;;;;5068237;28;20036;-63
2023/12/03 00:03:07;;;;;;;16.38;12.73;;;179.40;2252.80;;;;;;5068808;28;20053;-66
2023/12/03 00:05:36;;;;;;;19.55;12.77;;;179.30;2252.80;;;;;;5070439;28;20029;-67
2023/12/03 00:08:02;;;;;;;18.73;12.52;;;179.50;2252.80;;;;;;5070142;28;20031;-61
2023/12/03 00:10:28;;;;;;;18.80;11.93;;;179.40;2252.80;;;;;;5069645;28;20112;-62
2023/12/03 00:12:54;;;;;;;16.88;11.05;;;179.40;2252.80;;;;;;5069829;28;20114;-68
2023/12/03 00:15:21;;;;;;;18.27;11.88;;;179.40;2252.80;;;;;;5070399;28;20020;-67
2023/12/03 00:17:47;;;;;;;16.48;12.77;;;179.40;2252.80;;;;;;5070228;28;20029;-65
2023/12/03 00:20:13;;;;;;;20.13;13.77;;;179.30;2252.80;;;;;;5070079;28;20025;-68
2023/12/03 00:22:39;;;;;;;17.77;11.38;;;179.30;2252.80;;;;;;5069598;28;20052;-62
2023/12/03 00:25:06;;;;;;;19.70;11.68;;;179.30;2252.80;;;;;;5069869;28;20024;-63
2023/12/03 00:27:32;;;;;;;15.68;11.65;;;179.20;2252.80;;;;;;5070090;28;20023;-63
2023/12/03 00:29:58;;;;;;;14.75;10.77;;;179.20;2252.80;;;;;;5070144;28;20347;-61
2023/12/03 00:32:24;;;;;;;17.63;13.10;;;179.20;2252.80;;;;;;5063507;28;20025;-67
2023/12/03 00:34:49;;;;;;;13.60;9.80;;;179.20;2252.80;;;;;;5070001;28;20054;-62
2023/12/03 00:37:15;;;;;;;20.58;13.18;;;179.20;2252.80;;;;;;5069432;28;20028;-65
2023/12/03 00:39:41;;;;;;;18.63;12.00;;;179.20;2252.80;;;;;;5069585;28;20036;-63
2023/12/03 00:42:07;;;;;;;18.48;12.18;;;179.30;2252.80;;;;;;5069273;28;20041;-69
2023/12/03 00:44:33;;;;;;;17.08;11.55;;;179.40;2252.80;;;;;;5069614;28;20017;-68
2023/12/03 00:46:58;;;;;;;16.88;10.50;;;179.20;2252.80;;;;;;5069694;28;20443;-62
2023/12/03 00:49:24;;;;;;;15.52;11.30;;;154.50;2252.80;;;;;;5069341;28;20020;-68
2023/12/03 00:51:50;;;;;;;15.38;11.82;;;154.40;2252.80;;;;;;5069473;28;20020;-67
2023/12/03 00:54:17;;;;;;;15.05;10.65;;;179.20;2252.80;;;;;;5069232;28;20016;-62
2023/12/03 00:56:42;;;;;;;15.57;10.05;;;154.50;2252.80;;;;;;5069012;28;20120;-61
2023/12/03 00:59:09;;;;;;;13.07;10.18;;;154.50;2252.80;;;;;;5069117;28;20164;-63
2023/12/03 01:01:34;;;;;;;17.33;11.50;;;154.40;2252.80;;;;;;5068892;28;20497;-63
2023/12/03 01:04:00;;;;;;;15.45;10.45;;;154.50;2252.80;;;;;;5066191;28;20775;-70
2023/12/03 01:06:26;;;;;;;14.60;10.70;;;179.20;2252.80;;;;;;5073166;28;20075;-70
2023/12/03 01:08:52;;;;;;;14.77;9.60;;;154.50;2252.80;;;;;;5072868;28;20024;-66
2023/12/03 01:11:18;;;;;;;15.15;9.25;;;154.50;2252.80;;;;;;5072342;28;20040;-66
2023/12/03 01:13:44;;;;;;;15.05;9.82;;;179.30;2252.80;;;;;;5072773;28;20471;-61
2023/12/03 01:16:17;;;;;;;17.20;12.18;;;154.50;2252.80;;;;;;5072287;28;20497;-65
2023/12/03 01:18:43;;;;;;;16.00;10.05;;;154.50;2252.80;;;;;;5069286;28;20104;-61
2023/12/03 01:21:09;;;;;;;13.73;9.95;;;179.20;2252.80;;;;;;5068665;28;20583;-67
2023/12/03 01:23:35;;;;;;;13.30;9.25;;;179.20;2252.80;;;;;;5067333;28;20032;-61
2023/12/03 01:26:01;;;;;;;15.52;9.38;;;154.50;2252.80;;;;;;5069153;28;20386;-65
2023/12/03 01:28:27;;;;;;;14.45;9.95;;;154.20;2252.80;;;;;;5069446;28;20056;-63
2023/12/03 01:30:53;;;;;;;15.90;10.98;;;154.20;2252.80;;;;;;5068704;28;20024;-61
2023/12/03 01:33:18;;;;;;;19.30;14.40;;;154.20;2252.80;;;;;;5066377;28;20068;-61
2023/12/03 01:35:44;;;;;;;18.80;11.40;;;154.10;2252.80;;;;;;5066315;28;20104;-65
2023/12/03 01:38:10;;;;;;;15.35;10.40;;;154.20;2252.80;;;;;;5069184;28;20379;-64
2023/12/03 01:40:36;;;;;;;13.60;11.18;;;154.10;2252.80;;;;;;5068313;28;20083;-61
2023/12/03 01:43:02;;;;;;;15.85;9.75;;;154.00;2252.80;;;;;;5068784;28;20040;-66
2023/12/03 01:45:28;;;;;;;15.75;9.95;;;153.90;2252.80;;;;;;5068790;28;20108;-65
2023/12/03 01:47:55;;;;;;;17.55;11.60;;;153.90;2252.80;;;;;;5068913;28;20060;-66
2023/12/03 01:50:22;;;;;;;16.27;10.55;;;154.00;2252.80;;;;;;5068536;28;20029;-62
2023/12/03 01:52:49;;;;;;;13.48;9.88;;;154.10;2252.80;;;;;;5068889;28;20103;-65
2023/12/03 01:55:17;;;;;;;14.25;9.98;;;153.80;2252.80;;;;;;5056453;28;20028;-68
2023/12/03 01:57:44;;;;;;;15.10;10.02;;;154.30;2252.80;;;;;;5069435;28;20029;-60
2023/12/03 02:00:10;;;;;;;13.93;9.90;;;154.30;2252.80;;;;;;5070219;28;20490;-66
2023/12/03 02:02:36;;;;;;;11.23;7.57;;;154.00;2252.80;;;;;;5068100;28;20035;-66
2023/12/03 02:05:02;;;;;;;11.35;8.10;;;154.00;2252.80;;;;;;5064985;28;20479;-63
2023/12/03 02:07:28;;;;;;;12.45;8.48;;;153.90;2252.80;;;;;;5066449;28;20095;-65
2023/12/03 02:09:55;;;;;;;13.48;8.65;;;153.80;2252.80;;;;;;5068281;28;20112;-67
2023/12/03 02:12:21;;;;;;;10.43;7.38;;;153.80;2252.80;;;;;;5067544;28;20060;-63
2023/12/03 02:14:47;;;;;;;14.38;9.23;;;153.70;2252.80;;;;;;5069004;28;20021;-65
2023/12/03 02:17:13;;;;;;;10.70;8.00;;;153.80;2252.80;;;;;;5068525;28;20033;-61
2023/12/03 02:19:38;;;;;;;10.85;7.18;;;153.80;2252.80;;;;;;5068976;28;20032;-70
2023/12/03 02:22:04;;;;;;;11.70;7.13;;;153.60;2252.80;;;;;;5068458;28;20032;-62
2023/12/03 02:24:30;;;;;;;10.77;6.90;;;128.80;2252.80;;;;;;5068588;28;20036;-69
2023/12/03 02:26:56;;;;;;;10.52;7.00;;;153.70;2252.80;;;;;;5070302;28;20103;-62
2023/12/03 02:29:21;;;;;;;11.32;7.10;;;128.80;2252.80;;;;;;5072389;28;20024;-62
2023/12/03 02:31:47;;;;;;;15.55;8.23;;;128.80;2252.80;;;;;;5072513;28;20098;-68
2023/12/03 02:34:13;;;;;;;12.45;7.20;;;128.80;2252.80;;;;;;5072268;28;20495;-61
2023/12/03 02:36:39;;;;;;;10.98;7.22;;;153.60;2252.80;;;;;;5068282;28;20028;-64
2023/12/03 02:39:05;;;;;;;8.02;5.88;;;128.80;2252.80;;;;;;5069358;28;20409;-61
2023/12/03 02:41:32;;;;;;;10.38;6.53;;;128.90;2252.80;;;;;;5071477;28;20036;-62
2023/12/03 02:43:58;;;;;;;11.48;7.60;;;128.90;2252.80;;;;;;5072065;28;20438;-67
2023/12/03 02:46:24;;;;;;;11.52;7.38;;;153.60;2252.80;;;;;;5072318;28;20029;-62
2023/12/03 02:48:50;;;;;;;11.13;7.00;;;128.70;2252.80;;;;;;5072463;28;20028;-69
2023/12/03 02:51:16;;;;;;;10.20;6.35;;;128.70;2252.80;;;;;;5071913;28;20059;-69
2023/12/03 02:53:45;;;;;;;21.17;13.30;;;128.70;2252.80;;;;;;5071898;28;20498;-65
2023/12/03 02:56:12;;;;;;;10.50;7.93;;;128.60;2252.80;;;;;;5071999;28;20141;-68
2023/12/03 02:58:38;;;;;;;23.42;15.55;;;128.70;2252.80;;;;;;5072104;28;20042;-67
2023/12/03 03:01:08;;;;;;;12.15;8.88;;;128.70;2252.80;;;;;;5071896;28;20036;-62
2023/12/03 03:03:34;;;;;;;11.52;6.65;;;128.70;2252.80;;;;;;5072131;28;20039;-62
2023/12/03 03:06:00;;;;;;;14.10;7.15;;;128.70;2252.80;;;;;;5070563;28;20024;-68
2023/12/03 03:08:25;;;;;;;13.35;8.65;;;128.80;2252.80;;;;;;5062616;28;20029;-69
2023/12/03 03:10:51;;;;;;;11.00;6.75;;;128.60;2252.80;;;;;;5066051;28;20031;-63
2023/12/03 03:13:17;;;;;;;15.23;8.70;;;128.80;2252.80;;;;;;5071677;28;20037;-64
2023/12/03 03:15:43;;;;;;;10.60;7.32;;;128.80;2252.80;;;;;;5071895;28;20024;-61
2023/12/03 03:18:08;;;;;;;11.50;6.53;;;128.70;2252.80;;;;;;5072264;28;20020;-67
2023/12/03 03:20:36;;;;;;;10.40;6.32;;;128.60;2252.80;;;;;;5071334;28;20028;-62
2023/12/03 03:23:01;;;;;;;12.45;9.13;;;128.70;2252.80;;;;;;5071244;28;20020;-63
2023/12/03 03:25:27;;;;;;;11.45;6.78;;;128.70;2252.80;;;;;;5071652;28;20115;-69
2023/12/03 03:27:53;;;;;;;21.42;11.30;;;128.70;2252.80;;;;;;5071174;28;20464;-61
2023/12/03 03:30:19;;;;;;;12.90;7.72;;;128.70;2252.80;;;;;;5071296;28;20529;-61
2023/12/03 03:32:44;;;;;;;10.52;7.05;;;128.50;2252.80;;;;;;5071503;28;20352;-65
2023/12/03 03:35:10;;;;;;;16.10;8.27;;;128.60;2252.80;;;;;;5071181;28;20501;-68
2023/12/03 03:37:36;;;;;;;14.32;7.28;;;128.50;2252.80;;;;;;5069020;28;20103;-66
2023/12/03 03:40:02;;;;;;;10.00;6.93;;;128.50;2252.80;;;;;;5057831;28;20032;-64
2023/12/03 03:42:29;;;;;;;23.58;12.27;;;128.50;2252.80;;;;;;5071115;28;20257;-66
2023/12/03 03:44:55;;;;;;;7.47;5.68;;;128.40;2252.80;;;;;;5070440;28;20111;-68
2023/12/03 03:47:20;;;;;;;11.35;5.38;;;128.30;2252.80;;;;;;5071348;28;20116;-69
2023/12/03 03:49:46;;;;;;;10.00;5.63;;;128.40;2252.80;;;;;;5070866;28;20023;-68
2023/12/03 03:52:12;;;;;;;10.60;6.00;;;128.40;2252.80;;;;;;5070062;28;20032;-62
2023/12/03 03:54:41;;;;;;;13.68;6.40;;;128.30;2252.80;;;;;;5070572;28;20025;-68
2023/12/03 03:57:07;;;;;;;9.07;5.88;;;128.50;2252.80;;;;;;5070597;28;20031;-69
2023/12/03 03:59:33;;;;;;;9.32;7.13;;;128.40;2252.80;;;;;;5070686;28;20505;-66
2023/12/03 04:01:59;;;;;;;9.77;6.28;;;128.40;2252.80;;;;;;5070832;28;20048;-68
2023/12/03 04:04:24;;;;;;;10.93;6.45;;;128.40;2252.80;;;;;;5069992;28;20137;-63
2023/12/03 04:06:50;;;;;;;10.93;6.28;;;128.50;2252.80;;;;;;5068997;28;20465;-62
2023/12/03 04:09:16;;;;;;;10.55;6.13;;;128.30;2252.80;;;;;;5070301;28;20355;-64
2023/12/03 04:11:43;;;;;;;9.70;6.03;;;128.10;2252.80;;;;;;5069980;28;20164;-68
2023/12/03 04:14:15;;;;;;;8.00;5.38;;;128.30;2252.80;;;;;;5066658;28;20031;-61
2023/12/03 04:16:42;;;;;;;10.10;6.03;;;128.20;2252.80;;;;;;5066295;28;20028;-63
2023/12/03 04:19:08;;;;;;;21.45;13.35;;;128.30;2252.80;;;;;;5070323;28;20429;-66
2023/12/03 04:21:35;;;;;;;9.30;5.45;;;128.30;2252.80;;;;;;5070126;28;20043;-68
2023/12/03 04:24:01;;;;;;;9.63;5.25;;;128.40;2252.80;;;;;;5070335;28;20370;-66
2023/12/03 04:26:26;;;;;;;8.50;5.40;;;128.40;2252.80;;;;;;5070061;28;20036;-65
2023/12/03 04:28:52;;;;;;;8.02;5.07;;;128.30;2252.80;;;;;;5069755;28;20028;-69
2023/12/03 04:31:25;;;;;;;8.20;5.57;;;128.10;2252.80;;;;;;5070323;28;20082;-67
2023/12/03 04:33:51;;;;;;;11.73;6.27;;;128.20;2252.80;;;;;;5070208;28;20096;-61
2023/12/03 04:36:19;;;;;;;9.80;7.25;;;128.30;2252.80;;;;;;5070049;28;20040;-68
2023/12/03 04:38:44;;;;;;;8.30;5.72;;;128.10;2252.80;;;;;;5069547;28;20459;-62
2023/12/03 04:41:11;;;;;;;10.63;7.28;;;103.30;2227.20;;;;;;5069535;28;20036;-62
2023/12/03 04:43:36;;;;;;;10.93;7.18;;;103.20;2227.20;;;;;;5069836;28;20638;-68
2023/12/03 04:46:04;;;;;;;7.35;4.95;;;103.30;2227.20;;;;;;5063649;28;20063;-67
2023/12/03 04:48:30;;;;;;;7.97;4.88;;;103.30;2227.20;;;;;;5069801;28;20146;-61
2023/12/03 04:50:55;;;;;;;8.70;5.50;;;103.20;2227.20;;;;;;5069380;28;20480;-70
2023/12/03 04:53:21;;;;;;;7.70;5.18;;;103.10;2227.20;;;;;;5069315;28;20505;-62
2023/12/03 04:55:47;;;;;;;9.93;5.70;;;103.10;2227.20;;;;;;5069537;28;20162;-66
2023/12/03 04:58:12;;;;;;;8.65;5.22;;;103.20;2227.20;;;;;;5069018;28;20078;-60
2023/12/03 05:00:38;;;;;;;7.55;5.80;;;103.20;2227.20;;;;;;5069411;28;20248;-61
2023/12/03 05:03:04;;;;;;;8.40;5.88;;;103.20;2227.20;;;;;;5069554;28;20103;-63
2023/12/03 05:05:30;;;;;;;10.68;5.60;;;103.20;2227.20;;;;;;5069537;28;20031;-61
2023/12/03 05:07:55;;;;;;;11.63;6.50;;;103.10;2227.20;;;;;;5069172;28;20025;-70
2023/12/03 05:10:21;;;;;;;10.27;5.50;;;103.00;2227.20;;;;;;5068527;28;20379;-63
2023/12/03 05:12:47;;;;;;;10.32;6.20;;;103.10;2227.20;;;;;;5069134;28;20123;-64
2023/12/03 05:15:13;;;;;;;8.25;5.72;;;103.10;2227.20;;;;;;5068886;28;20063;-61
2023/12/03 05:17:40;;;;;;;15.65;8.77;;;103.20;2227.20;;;;;;5068622;28;20024;-70
2023/12/03 05:20:06;;;;;;;10.45;7.35;;;103.00;2227.20;;;;;;5057723;28;20405;-69
2023/12/03 05:22:32;;;;;;;10.43;6.53;;;103.10;2227.20;;;;;;5069275;28;20107;-66
2023/12/03 05:24:58;;;;;;;12.55;6.97;;;103.00;2227.20;;;;;;5068624;28;20032;-64
2023/12/03 05:27:24;;;;;;;10.20;6.18;;;102.90;2227.20;;;;;;5069032;28;20042;-62
2023/12/03 05:29:50;;;;;;;11.18;6.55;;;103.00;2227.20;;;;;;5069050;28;20039;-67
2023/12/03 05:32:16;;;;;;;11.32;7.47;;;103.10;2227.20;;;;;;5068979;28;20024;-71
2023/12/03 05:34:45;;;;;;;9.65;6.38;;;103.00;2227.20;;;;;;5069058;28;20025;-62
2023/12/03 05:37:12;;;;;;;7.90;6.15;;;103.20;2227.20;;;;;;5068841;28;20035;-63
2023/12/03 05:39:38;;;;;;;11.43;7.90;;;103.00;2227.20;;;;;;5069320;28;20433;-70
2023/12/03 05:42:04;;;;;;;13.85;6.32;;;103.00;2227.20;;;;;;5068587;28;20036;-62
2023/12/03 05:44:30;;;;;;;9.07;5.97;;;103.00;2227.20;;;;;;5069071;28;20039;-70
2023/12/03 05:46:56;;;;;;;10.13;5.80;;;103.10;2227.20;;;;;;5068883;28;20028;-68
2023/12/03 05:49:22;;;;;;;20.95;11.20;;;103.20;2227.20;;;;;;5068848;28;20472;-69
2023/12/03 05:51:49;;;;;;;14.00;8.15;;;103.10;2227.20;;;;;;5065117;28;20028;-70
2023/12/03 05:54:15;;;;;;;10.48;5.82;;;103.10;2227.20;;;;;;5066819;28;20036;-66
2023/12/03 05:56:42;;;;;;;8.82;5.70;;;103.10;2227.20;;;;;;5069993;28;20499;-62
2023/12/03 05:59:07;;;;;;;10.45;7.13;;;103.00;2227.20;;;;;;5071823;28;20099;-70
2023/12/03 06:01:33;;;;;;;10.40;7.75;;;103.20;2227.20;;;;;;5073203;28;20075;-69
2023/12/03 06:04:00;;;;;;;9.65;6.50;;;103.20;2227.20;;;;;;5076866;28;20033;-69
2023/12/03 06:06:26;;;;;;;8.38;5.05;;;103.20;2227.20;;;;;;5075998;28;20478;-71
2023/12/03 06:08:52;;;;;;;23.88;11.23;;;103.30;2227.20;;;;;;5076225;28;20524;-64
2023/12/03 06:11:18;;;;;;;7.50;4.80;;;103.10;2227.20;;;;;;5072813;28;20040;-68
2023/12/03 06:13:44;;;;;;;17.92;12.15;;;103.20;2227.20;;;;;;5072657;28;20082;-61
2023/12/03 06:16:10;;;;;;;17.33;9.52;;;103.30;2227.20;;;;;;5073008;28;20028;-61
2023/12/03 06:18:36;;;;;;;8.43;5.22;;;128.10;2252.80;;;;;;5072735;28;20028;-70
2023/12/03 06:21:02;;;;;;;7.18;4.25;;;128.10;2252.80;;;;;;5072923;28;20040;-63
2023/12/03 06:23:28;;;;;;;9.23;5.32;;;128.10;2252.80;;;;;;5071830;28;20347;-66
2023/12/03 06:25:54;;;;;;;10.02;6.18;;;103.30;2227.20;;;;;;5068699;28;20031;-71
2023/12/03 06:28:19;;;;;;;6.93;3.97;;;103.30;2227.20;;;;;;5072308;28;20470;-66
2023/12/03 06:30:47;;;;;;;12.00;9.88;;;103.30;2227.20;;;;;;5072094;28;20518;-71
2023/12/03 06:33:14;;;;;;;7.47;5.22;;;103.30;2227.20;;;;;;5072256;28;20070;-63
2023/12/03 06:35:40;;;;;;;7.38;4.43;;;103.30;2227.20;;;;;;5072248;28;20103;-65
2023/12/03 06:38:06;;;;;;;9.93;6.32;;;103.20;2227.20;;;;;;5071751;28;20108;-71
2023/12/03 06:40:32;;;;;;;21.45;12.60;;;103.20;2227.20;;;;;;5072128;28;20108;-60
2023/12/03 06:42:58;;;;;;;27.90;16.80;;;103.30;2227.20;;;;;;5072194;28;20136;-72
2023/12/03 06:45:24;;;;;;;11.02;7.25;;;128.10;2252.80;;;;;;5058689;28;20514;-72
2023/12/03 06:47:50;;;;;;;53.83;38.58;;;128.10;2252.80;;;;;;5071836;28;20116;-62
2023/12/03 06:50:15;;;;;;;11.73;8.02;;;128.00;2252.80;;;;;;5072205;28;20027;-70
2023/12/03 06:52:41;;;;;;;32.95;19.92;;;128.20;2252.80;;;;;;5072136;28;20027;-63
2023/12/03 06:55:07;;;;;;;16.05;11.55;;;128.10;2252.80;;;;;;5069306;28;20024;-63
2023/12/03 06:57:33;;;;;;;27.65;18.48;;;128.10;2252.80;;;;;;5068466;28;20020;-68
2023/12/03 06:59:59;;;;;;;12.40;8.30;;;128.30;2252.80;;;;;;5071815;28;20386;-71
2023/12/03 07:02:25;;;;;;;14.38;9.25;;;128.20;2252.80;;;;;;5071837;28;20072;-66
2023/12/03 07:04:51;;;;;;;33.35;20.50;;;128.40;2252.80;;;;;;5059020;28;20090;-66
2023/12/03 07:07:17;;;;;;;51.95;33.58;;;128.30;2252.80;;;;;;5066942;28;20033;-69
2023/12/03 07:09:42;;;;;;;34.65;22.00;;;128.10;2252.80;;;;;;5071677;28;20036;-61
2023/12/03 07:12:08;;;;;;;114.80;84.32;;;128.20;2252.80;;;;;;5070381;28;20052;-70
2023/12/03 07:14:34;;;;;;;78.35;64.60;;;128.20;2252.80;;;;;;5071208;28;20436;-63
2023/12/03 07:17:00;;;;;;;37.95;30.10;;;128.20;2252.80;;;;;;5071690;28;20095;-66
2023/12/03 07:19:25;;;;;;;9.90;6.10;;;128.20;2252.80;;;;;;5071558;28;20070;-69
2023/12/03 07:21:51;;;;;;;21.83;12.18;;;128.10;2252.80;;;;;;5071094;28;20086;-65
2023/12/03 07:24:17;;;;;;;31.75;14.55;;;128.10;2252.80;;;;;;5071567;28;20016;-70
2023/12/03 07:26:44;;;;;;;20.40;10.15;;;128.10;2252.80;;;;;;5071199;28;20040;-69
2023/12/03 07:29:10;;;;;;;25.38;16.25;;;128.30;2252.80;;;;;;5070909;28;20028;-62
2023/12/03 07:31:36;;;;;;;15.20;10.43;;;128.10;2252.80;;;;;;5071408;28;20407;-60
2023/12/03 07:34:01;;;;;;;20.35;10.55;;;128.10;2252.80;;;;;;5069288;28;20023;-67
2023/12/03 07:36:27;;;;;;;20.45;16.10;;;128.00;2252.80;;;;;;5066916;28;20031;-62
2023/12/03 07:38:53;;;;;;;12.57;7.57;;;128.00;2252.80;;;;;;5070638;28;20095;-69
2023/12/03 07:41:18;;;;;;;12.98;7.72;;;128.00;2252.80;;;;;;5070359;28;20046;-68
2023/12/03 07:43:44;;;;;;;16.20;11.15;;;128.00;2252.80;;;;;;5070613;28;20031;-62
2023/12/03 07:46:16;;;;;;;16.92;10.48;;;103.30;2227.20;;;;;;5069889;28;20535;-68
2023/12/03 07:48:42;;;;;;;23.52;14.57;;;128.00;2252.80;;;;;;5064727;28;20032;-64
2023/12/03 07:51:11;;;;;;;10.65;6.57;;;128.00;2252.80;;;;;;5070898;28;20021;-70
2023/12/03 07:53:38;;;;;;;12.90;6.13;;;128.00;2252.80;;;;;;5070889;28;20032;-61
2023/12/03 07:56:05;;;;;;;21.08;12.40;;;103.20;2227.20;;;;;;5070487;28;20108;-61
2023/12/03 07:58:31;;;;;;;32.40;18.67;;;103.30;2227.20;;;;;;5052691;28;20032;-68
2023/12/03 08:00:59;;;;;;;25.92;15.07;;;128.00;2252.80;;;;;;5070311;28;20016;-69
2023/12/03 08:03:25;;;;;;;22.10;12.65;;;128.20;2252.80;;;;;;5070371;28;20524;-65
2023/12/03 08:05:51;;;;;;;17.30;6.45;;;128.20;2252.80;;;;;;5065160;28;20048;-65
2023/12/03 08:08:16;;;;;;;26.98;14.60;;;128.10;2252.80;;;;;;5070636;28;20491;-67
2023/12/03 08:10:42;;;;;;;10.63;5.97;;;128.10;2252.80;;;;;;5069974;28;20378;-69
2023/12/03 08:13:08;;;;;;;10.77;7.18;;;128.00;2252.80;;;;;;5070438;28;20119;-68
2023/12/03 08:15:34;;;;;;;26.25;12.52;;;128.00;2252.80;;;;;;5070302;28;20469;-66
2023/12/03 08:17:59;;;;;;;16.05;10.70;;;128.20;2252.80;;;;;;5070691;28;20033;-68
2023/12/03 08:20:25;;;;;;;13.75;7.53;;;128.30;2252.80;;;;;;5070001;28;20035;-67
2023/12/03 08:22:53;;;;;;;16.35;10.95;;;128.30;2252.80;;;;;;5069843;28;20036;-68
2023/12/03 08:25:19;;;;;;;15.48;8.95;;;128.30;2252.80;;;;;;5069250;28;20029;-67
2023/12/03 08:27:44;;;;;;;13.65;6.75;;;128.40;2252.80;;;;;;5070405;28;20024;-62
2023/12/03 08:30:12;;;;;;;7.88;5.28;;;128.40;2252.80;;;;;;5069044;28;20036;-61
2023/12/03 08:32:38;;;;;;;8.70;5.07;;;128.30;2252.80;;;;;;5070004;28;20107;-64
2023/12/03 08:35:04;;;;;;;9.93;6.03;;;128.30;2252.80;;;;;;5069739;28;20112;-63
2023/12/03 08:37:29;;;;;;;15.50;10.38;;;128.40;2252.80;;;;;;5067675;28;20067;-67
2023/12/03 08:39:55;;;;;;;19.55;8.93;;;128.60;2252.80;;;;;;5068961;28;21738;-71
2023/12/03 08:42:21;;;;;;;14.90;9.55;;;128.60;2252.80;;;;;;5069744;28;20477;-63
2023/12/03 08:44:47;;;;;;;9.45;6.63;;;128.50;2252.80;;;;;;5069639;28;20475;-66
2023/12/03 08:47:13;;;;;;;26.40;18.00;;;128.50;2252.80;;;;;;5059530;28;20020;-68
2023/12/03 08:49:40;;;;;;;13.60;8.10;;;128.40;2252.80;;;;;;5068089;28;20495;-66
2023/12/03 08:52:08;;;;;;;37.05;17.05;;;128.40;2252.80;;;;;;5069478;28;20387;-66
2023/12/03 08:54:34;;;;;;;10.02;6.75;;;128.40;2252.80;;;;;;5069252;28;20024;-68
2023/12/03 08:57:00;;;;;;;16.67;11.65;;;128.40;2252.80;;;;;;5069852;28;20028;-66
2023/12/03 08:59:25;;;;;;;29.70;11.82;;;128.30;2252.80;;;;;;5069070;28;20024;-70
2023/12/03 09:01:51;;;;;;;9.13;5.75;;;128.40;2252.80;;;;;;5069486;28;20438;-63
2023/12/03 09:04:17;;;;;;;16.98;11.85;;;128.40;2252.80;;;;;;5068820;28;20060;-67
2023/12/03 09:06:44;;;;;;;24.67;14.90;;;128.40;2252.80;;;;;;5068911;28;20108;-68
2023/12/03 09:09:10;;;;;;;39.65;20.70;;;128.40;2252.80;;;;;;5063202;28;20028;-65
2023/12/03 09:11:40;;;;;;;10.40;7.95;;;128.40;2252.80;;;;;;5065125;28;20048;-66
2023/12/03 09:14:06;;;;;;;15.13;9.55;;;128.40;2252.80;;;;;;5069071;28;20032;-69
2023/12/03 09:16:32;;;;;;;11.30;5.55;;;128.30;2252.80;;;;;;5069143;28;20028;-67
2023/12/03 09:18:58;;;;;;;63.10;38.22;;;128.30;2252.80;;;;;;5068967;28;20027;-71
2023/12/03 09:21:23;;;;;;;23.20;12.27;;;128.30;2252.80;;;;;;5068926;28;20075;-64
2023/12/03 09:23:49;;;;;;;24.50;14.85;;;128.30;2252.80;;;;;;5068468;28;20082;-70
2023/12/03 09:26:16;;;;;;;35.03;19.58;;;128.30;2252.80;;;;;;5069062;28;20387;-62
2023/12/03 09:28:41;;;;;;;37.63;26.90;;;128.70;2252.80;;;;;;5068479;28;20067;-58
2023/12/03 09:31:07;;;;;;;28.30;17.48;;;128.90;2252.80;;;;;;5069140;28;20060;-58
2023/12/03 09:33:33;;;;;;;39.13;26.80;;;153.60;2252.80;;;;;;5068862;28;20417;-64
2023/12/03 09:35:59;;;;;;;90.15;60.47;;;128.90;2252.80;;;;;;5067268;28;20082;-59
2023/12/03 09:38:25;;;;;;;30.83;18.10;;;153.60;2252.80;;;;;;5068150;28;20166;-58
2023/12/03 09:40:56;;;;;;;52.38;34.40;;;153.60;2252.80;;;;;;5066534;28;20036;-58
2023/12/03 09:43:26;;;;;;;34.53;22.95;;;128.90;2252.80;;;;;;5068259;28;20040;-58
2023/12/03 09:45:56;;;;;;;30.23;17.63;;;153.60;2252.80;;;;;;5068011;28;20033;-58
2023/12/03 09:48:24;;;;;;;27.52;17.45;;;153.80;2252.80;;;;;;5067708;28;20044;-58
2023/12/03 09:50:54;;;;;;;45.78;24.65;;;153.80;2252.80;;;;;;5069020;28;20036;-58
2023/12/03 09:53:24;;;;;;;17.30;10.95;;;153.70;2252.80;;;;;;5056292;28;20367;-57
2023/12/03 09:55:51;;;;;;;18.20;9.35;;;153.60;2252.80;;;;;;5065326;28;20387;-60
2023/12/03 09:58:16;;;;;;;14.57;9.60;;;153.60;2252.80;;;;;;5067997;28;20028;-58
2023/12/03 10:00:42;;;;;;;10.88;7.57;;;128.70;2252.80;;;;;;5066977;28;20139;-58
2023/12/03 10:03:08;;;;;;;27.88;14.57;;;128.80;2252.80;;;;;;5067641;28;20078;-58
2023/12/03 10:05:34;;;;;;;12.35;7.57;;;153.60;2252.80;;;;;;5065688;28;20379;-61
2023/12/03 10:08:00;;;;;;;12.13;8.40;;;153.70;2252.80;;;;;;5067802;28;20040;-67
2023/12/03 10:10:31;;;;;;;20.30;12.68;;;153.90;2252.80;;;;;;5066180;28;20036;-63
2023/12/03 10:12:58;;;;;;;13.27;8.25;;;154.00;2252.80;;;;;;5068678;28;20491;-60
2023/12/03 10:15:24;;;;;;;8.85;5.97;;;153.90;2252.80;;;;;;5069057;28;20031;-68
2023/12/03 10:17:50;;;;;;;10.90;7.32;;;153.80;2252.80;;;;;;5061845;28;20033;-59
2023/12/03 10:20:26;;;;;;;14.75;10.73;;;153.90;2252.80;;;;;;5066726;28;20032;-59
2023/12/03 10:22:54;;;;;;;473.45;301.67;;;154.00;2252.80;;;;;;5066625;28;20390;-61
2023/12/03 10:25:27;;;;;;;22.05;13.70;;;153.70;2252.80;;;;;;5068657;28;20024;-58
2023/12/03 10:27:54;;;;;;;23.90;15.38;;;153.80;2252.80;;;;;;5067806;28;20079;-59
2023/12/03 10:30:20;;;;;;;23.40;13.27;;;153.60;2252.80;;;;;;5067713;28;20050;-59
2023/12/03 10:32:46;;;;;;;21.10;12.13;;;153.70;2252.80;;;;;;5067830;28;20025;-59
2023/12/03 10:35:12;;;;;;;15.65;10.15;;;153.80;2252.80;;;;;;5068146;28;20021;-59
2023/12/03 10:37:38;;;;;;;19.40;11.40;;;153.80;2252.80;;;;;;5068766;28;20037;-59
2023/12/03 10:40:04;;;;;;;21.25;13.57;;;153.80;2252.80;;;;;;5068093;28;20028;-59
2023/12/03 10:42:35;;;;;;;15.88;9.60;;;153.90;2252.80;;;;;;5068839;28;20048;-59
2023/12/03 10:45:09;;;;;;;33.80;17.65;;;153.90;2252.80;;;;;;5068171;28;20024;-68
2023/12/03 10:47:36;;;;;;;17.58;13.63;;;153.90;2252.80;;;;;;5073378;28;20400;-59
2023/12/03 10:50:05;;;;;;;37.35;23.08;;;154.00;2252.80;;;;;;5070718;28;20025;-63
2023/12/03 10:52:33;;;;;;;26.30;15.65;;;154.00;2252.80;;;;;;5076225;28;20257;-68
2023/12/03 10:54:58;;;;;;;58.30;31.52;;;154.10;2252.80;;;;;;5075649;28;20044;-60
2023/12/03 10:57:29;;;;;;;46.28;26.67;;;154.00;2252.80;;;;;;5076547;28;20086;-59
2023/12/03 11:00:10;;;;;;;42.53;24.23;;;154.10;2252.80;;;;;;5073088;28;20025;-59
2023/12/03 11:02:47;;;;;;;38.60;21.83;;;154.10;2252.80;;;;;;5071578;28;20064;-59
2023/12/03 11:05:31;;;;;;;21.25;12.82;;;154.00;2252.80;;;;;;5071962;28;20009;-60
2023/12/03 11:08:00;;;;;;;16.50;8.20;;;153.90;2252.80;;;;;;5071107;28;20021;-59
2023/12/03 11:10:26;;;;;;;18.63;11.75;;;153.90;2227.20;;;;;;5071600;28;20062;-59
2023/12/03 11:12:53;;;;;;;20.23;13.35;;;153.90;2252.80;;;;;;5071401;28;20059;-62
2023/12/03 11:15:19;;;;;;;14.57;8.18;;;128.80;2252.80;;;;;;5059729;28;20052;-59
2023/12/03 11:17:47;;;;;;;13.45;9.35;;;128.90;2252.80;;;;;;5070545;28;20016;-58
2023/12/03 11:20:18;;;;;;;8.65;5.93;;;128.90;2252.80;;;;;;5069622;28;20086;-59
2023/12/03 11:23:06;;;;;;;12.75;9.32;;;153.60;2252.80;;;;;;5060132;28;20021;-58
2023/12/03 11:25:38;;;;;;;20.48;9.45;;;128.90;2252.80;;;;;;5067459;28;20021;-59
2023/12/03 11:28:04;;;;;;;12.27;8.10;;;128.70;2252.80;;;;;;5071683;28;20352;-58
2023/12/03 11:30:42;;;;;;;22.52;14.50;;;128.70;2252.80;;;;;;5071498;28;20039;-58
2023/12/03 11:33:11;;;;;;;20.88;13.13;;;128.50;2252.80;;;;;;5071124;28;20024;-58
2023/12/03 11:35:42;;;;;;;38.28;24.20;;;128.50;2252.80;;;;;;5070944;28;20025;-58
2023/12/03 11:38:20;;;;;;;23.40;14.88;;;128.70;2252.80;;;;;;5071228;28;20413;-59
2023/12/03 11:40:46;;;;;;;84.13;44.25;;;128.50;2252.80;;;;;;5058534;28;20483;-58
2023/12/03 11:43:37;;;;;;;22.85;11.65;;;128.60;2252.80;;;;;;5071434;28;20028;-59
2023/12/03 11:46:03;;;;;;;11.50;7.22;;;128.50;2252.80;;;;;;5069189;28;20032;-62
2023/12/03 11:48:33;;;;;;;13.48;9.93;;;128.50;2252.80;;;;;;5071006;28;20025;-59
2023/12/03 11:50:58;;;;;;;26.30;15.30;;;128.60;2252.80;;;;;;5070973;28;20028;-59
2023/12/03 11:54:00;;;;;;;97.75;57.83;;;128.70;2252.80;;;;;;5070570;28;20044;-59
2023/12/03 11:56:27;;;;;;;21.52;13.38;;;128.90;2252.80;;;;;;5067206;28;20059;-58
2023/12/03 11:58:54;;;;;;;24.08;15.75;;;153.60;2252.80;;;;;;5069802;28;20047;-59
2023/12/03 12:01:20;;;;;;;25.70;16.30;;;153.80;2252.80;;;;;;5070689;28;20040;-58
2023/12/03 12:03:46;;;;;;;18.75;12.50;;;153.90;2252.80;;;;;;5070496;28;20036;-61